Central Brevoort - southern half: Past 24 Hour Conditions

 

Rankin Inlet Airport

03:00 PM CDT 24 April 2014
This table is a summary of hourly weather conditions for the past 24 hours.
Date / Time
(CDT)
Wind(knots) Conditions Visibility(km) Pressure(kPa) Air tempC) Relative humidity(%) Dew pointC) Wind Chill
24 April 2014
15:00 NNW 11 Partly Cloudy 24 103.1 -12 77 -15 -21
14:00 NNW 14 Partly Cloudy 24 103.1 -12 78 -15 -22
13:00 NNW 11 Partly Cloudy 24 103.1 -13 77 -16 -22
12:00 NNW 13 Partly Cloudy 24 103.1 -15 77 -18 -25
11:00 NW 12 Partly Cloudy 24 103.1 -16 76 -19 -26
10:00 NW 9 Mainly Sunny 24 103.1 -17 77 -20 -25
9:00 NW 9 Mainly Sunny 24 103.1 -18 77 -21 -27
8:00 NNW 9 Mainly Sunny 24 103.1 -19 78 -22 -29
7:00 NNW 11 Sunny 24 103.1 -20 78 -23 -31
6:00 NNW 13 Sunny 24 103.1 -21 79 -23 -32
5:00 NNW 11 Clear 24 103.0 -21 79 -23 -31
4:00 NNW 12 Clear 24 103.0 -20 79 -23 -31
3:00 NNW 10 Clear 24 103.1 -20 80 -22 -30
2:00 NNW 14 Clear 24 103.1 -19 81 -22 -31
1:00 NNW 14 Clear 24 103.1 -19 81 -21 -30
0:00 NNW 11 Clear 24 103.1 -18 81 -21 -28
23 April 2014
23:00 NW 8 Clear 24 103.0 -17 82 -20 -25
22:00 N 9 Clear 24 103.0 -17 82 -19 -25
21:00 NNW 13 Clear 24 103.0 -16 81 -18 -26
20:00 NNW 11 Sunny 24 103.0 -14 80 -17 -23
19:00 NNW 10 Sunny 24 102.9 -13 79 -16 -21
18:00 N 16 Sunny 24 102.9 -12 77 -16 -22
17:00 N 12 Sunny 24 102.9 -12 76 -16 -21
16:00 N 11 Sunny 24 102.9 -13 76 -16 -21
15:00 N 13 Sunny 24 102.8 -13 77 -16 -23
 
Map of Arctic - Eastern Arctic marine weather areas Baker Lake Airport Chesterfield Inlet Airport Coral Harbour Airport Gjoa Haven Airport Kugaaruk Airport Rankin Inlet Airport Shepherd Bay Airport Whale Cove Airport Arctic Bay Brevoort Island Qikiqtarjuaq Airport Cape Dorset Airport Cape Dyer Cape Hooper Clyde Airport Grise Fiord Airport Hall Beach Airport Igloolik Airport Iqaluit Airport Longstaff Bluff Pangnirtung Airport Pond Inlet Airport Repulse Bay Airport Resolute Airport Resolution Island Rowley Island Airport Taloyoak Airport Wager Bay Akulivik Airport Ivujivik Airport Puvirnituq Airport Kangiqsujuaq Airport Kangirsuk Airport Quaqtaq Airport Tasiujaq Airport Cape Kakkiviak Cape Kiglapait Nain Airport Saglek Cape Mercy Kimmirut Airport Aupaluk Airport Salluit Airport Kangiqsualujjuaq Airport Fort Ross
Legend: buoyBuoy land stationLand Station